Time;durP1;ratioP1;P1;durP2;ratioP2;P2;SDS_P1;SDS_P2;PMS_P1;PMS_P2;Temp;Humidity;BMP_temperature;BMP_pressure;BME280_temperature;BME280_humidity;BME280_pressure;Samples;Min_cycle;Max_cycle;Signal;HPM_P1;HPM_P2
2021/06/11 00:02:20;;;;;;;3.20;2.60;;;;;;;;;;5095605;28;20020;-69
2021/06/11 00:04:45;;;;;;;2.95;2.75;;;;;;;;;;5095767;28;20062;-69
2021/06/11 00:07:11;;;;;;;3.60;2.75;;;;;;;;;;5095466;28;20095;-70
2021/06/11 00:09:36;;;;;;;2.95;2.75;;;;;;;;;;5095705;28;20028;-70
2021/06/11 00:12:02;;;;;;;6.43;3.15;;;;;;;;;;5095581;28;20024;-70
2021/06/11 00:14:28;;;;;;;3.58;3.28;;;;;;;;;;5095117;28;20016;-70
2021/06/11 00:16:53;;;;;;;3.75;3.15;;;;;;;;;;5095075;28;20462;-70
2021/06/11 00:19:19;;;;;;;3.30;3.03;;;;;;;;;;5095712;28;20382;-70
2021/06/11 00:21:44;;;;;;;4.53;2.80;;;;;;;;;;5093583;28;20059;-70
2021/06/11 00:24:09;;;;;;;3.08;2.88;;;;;;;;;;5094904;28;20035;-70
2021/06/11 00:26:35;;;;;;;2.92;2.72;;;;;;;;;;5095471;28;20099;-70
2021/06/11 00:29:00;;;;;;;3.83;2.33;;;;;;;;;;5094058;28;20034;-70
2021/06/11 00:31:26;;;;;;;3.35;3.05;;;;;;;;;;5095233;28;20024;-70
2021/06/11 00:33:52;;;;;;;3.20;2.90;;;;;;;;;;5093949;28;20111;-70
2021/06/11 00:36:18;;;;;;;4.03;3.00;;;;;;;;;;5093499;28;20031;-70
2021/06/11 00:38:43;;;;;;;2.88;2.58;;;;;;;;;;5094926;28;20032;-70
2021/06/11 00:41:09;;;;;;;2.83;2.63;;;;;;;;;;5076518;28;20028;-70
2021/06/11 00:43:34;;;;;;;2.88;2.67;;;;;;;;;;5093431;28;20039;-70
2021/06/11 00:45:59;;;;;;;3.13;2.67;;;;;;;;;;5094661;28;20366;-70
2021/06/11 00:48:25;;;;;;;2.40;2.20;;;;;;;;;;5094414;28;20535;-69
2021/06/11 00:50:50;;;;;;;3.17;2.53;;;;;;;;;;5093754;28;20024;-69
2021/06/11 00:53:16;;;;;;;2.70;2.60;;;;;;;;;;5095160;28;20036;-70
2021/06/11 00:55:45;;;;;;;3.15;2.58;;;;;;;;;;5093309;28;20058;-70
2021/06/11 00:58:15;;;;;;;3.35;2.70;;;;;;;;;;5094746;28;20016;-69
2021/06/11 01:00:41;;;;;;;2.92;2.67;;;;;;;;;;5093280;28;20019;-69
2021/06/11 01:03:07;;;;;;;3.08;2.88;;;;;;;;;;5094396;28;20016;-69
2021/06/11 01:05:32;;;;;;;2.53;2.33;;;;;;;;;;5094601;28;20459;-69
2021/06/11 01:07:58;;;;;;;2.58;2.38;;;;;;;;;;5094262;28;20543;-69
2021/06/11 01:10:24;;;;;;;2.70;2.53;;;;;;;;;;5093280;28;20032;-69
2021/06/11 01:12:50;;;;;;;3.00;2.70;;;;;;;;;;5093985;28;20488;-69
2021/06/11 01:15:17;;;;;;;2.90;2.70;;;;;;;;;;5094024;28;20024;-69
2021/06/11 01:17:43;;;;;;;3.25;2.95;;;;;;;;;;5093522;28;20504;-70
2021/06/11 01:20:09;;;;;;;3.30;2.58;;;;;;;;;;5094065;28;20035;-69
2021/06/11 01:22:35;;;;;;;2.92;2.72;;;;;;;;;;5094388;28;20024;-69
2021/06/11 01:25:09;;;;;;;2.80;2.60;;;;;;;;;;5094396;28;20085;-70
2021/06/11 01:27:35;;;;;;;3.17;2.97;;;;;;;;;;5094356;28;20035;-70
2021/06/11 01:30:14;;;;;;;3.67;3.38;;;;;;;;;;5092887;28;20020;-69
2021/06/11 01:32:40;;;;;;;3.47;3.17;;;;;;;;;;5094201;28;20020;-70
2021/06/11 01:35:09;;;;;;;3.42;3.22;;;;;;;;;;5093765;28;20077;-70
2021/06/11 01:37:36;;;;;;;2.83;2.63;;;;;;;;;;5092133;28;20074;-70
2021/06/11 01:40:05;;;;;;;3.47;3.17;;;;;;;;;;5092387;28;20470;-70
2021/06/11 01:42:34;;;;;;;3.30;3.10;;;;;;;;;;5092575;28;20035;-68
2021/06/11 01:45:05;;;;;;;4.73;2.63;;;;;;;;;;5093973;28;20466;-68
2021/06/11 01:47:31;;;;;;;2.90;2.70;;;;;;;;;;5093578;28;20103;-68
2021/06/11 01:49:56;;;;;;;3.20;2.90;;;;;;;;;;5093951;28;20146;-69
2021/06/11 01:52:24;;;;;;;2.90;2.67;;;;;;;;;;5092405;28;20029;-69
2021/06/11 01:54:50;;;;;;;3.78;3.47;;;;;;;;;;5092531;28;20056;-69
2021/06/11 01:57:15;;;;;;;3.47;3.15;;;;;;;;;;5093656;28;20062;-69
2021/06/11 01:59:41;;;;;;;3.13;2.92;;;;;;;;;;5092704;28;20137;-70
2021/06/11 02:02:07;;;;;;;2.95;2.85;;;;;;;;;;5093392;28;20123;-70
2021/06/11 02:04:33;;;;;;;2.95;2.63;;;;;;;;;;5093715;28;20027;-71
2021/06/11 02:06:59;;;;;;;3.17;2.88;;;;;;;;;;5093572;28;20036;-71
2021/06/11 02:09:27;;;;;;;3.03;2.80;;;;;;;;;;5092103;28;20020;-70
2021/06/11 02:11:53;;;;;;;3.63;3.28;;;;;;;;;;5093630;28;20035;-69
2021/06/11 02:14:21;;;;;;;3.70;3.33;;;;;;;;;;5092302;28;20393;-70
2021/06/11 02:16:48;;;;;;;2.63;2.53;;;;;;;;;;5093619;28;20040;-70
2021/06/11 02:19:13;;;;;;;3.08;2.65;;;;;;;;;;5093630;28;20020;-70
2021/06/11 02:21:39;;;;;;;3.20;3.00;;;;;;;;;;5093356;28;20027;-70
2021/06/11 02:24:08;;;;;;;3.28;2.97;;;;;;;;;;5093335;28;20471;-70
2021/06/11 02:26:34;;;;;;;3.30;3.10;;;;;;;;;;5093179;28;20118;-69
2021/06/11 02:28:59;;;;;;;3.33;2.90;;;;;;;;;;5093240;28;20055;-69
2021/06/11 02:31:25;;;;;;;3.28;3.08;;;;;;;;;;5093143;28;20024;-69
2021/06/11 02:33:50;;;;;;;3.20;2.97;;;;;;;;;;5093091;28;20020;-68
2021/06/11 02:36:16;;;;;;;3.03;2.83;;;;;;;;;;5092923;28;20081;-68
2021/06/11 02:38:42;;;;;;;3.22;2.92;;;;;;;;;;5093279;28;20051;-70
2021/06/11 02:41:09;;;;;;;3.28;2.50;;;;;;;;;;5092102;28;20032;-70
2021/06/11 02:43:42;;;;;;;3.20;2.97;;;;;;;;;;5091938;28;20537;-67
2021/06/11 02:46:12;;;;;;;2.95;2.75;;;;;;;;;;5092097;28;20456;-70
2021/06/11 02:48:40;;;;;;;3.65;3.08;;;;;;;;;;5092908;28;20053;-70
2021/06/11 02:51:09;;;;;;;3.63;3.22;;;;;;;;;;5093257;28;20036;-71
2021/06/11 02:53:36;;;;;;;4.15;3.67;;;;;;;;;;5093025;28;20020;-70
2021/06/11 02:56:03;;;;;;;3.67;3.38;;;;;;;;;;5091788;28;20028;-70
2021/06/11 02:58:31;;;;;;;4.70;3.25;;;;;;;;;;5091741;28;20016;-70
2021/06/11 03:00:58;;;;;;;3.58;3.28;;;;;;;;;;5091596;28;20020;-71
2021/06/11 03:03:27;;;;;;;5.95;3.13;;;;;;;;;;5091669;28;20027;-71
2021/06/11 03:05:57;;;;;;;3.50;3.20;;;;;;;;;;5092804;28;20456;-70
2021/06/11 03:08:24;;;;;;;3.90;2.88;;;;;;;;;;5092919;28;20479;-69
2021/06/11 03:10:52;;;;;;;3.47;3.28;;;;;;;;;;5093912;28;20106;-69
2021/06/11 03:13:18;;;;;;;3.50;3.03;;;;;;;;;;5096845;28;20103;-70
2021/06/11 03:15:44;;;;;;;3.42;3.13;;;;;;;;;;5096849;28;20036;-70
2021/06/11 03:18:18;;;;;;;3.25;3.05;;;;;;;;;;5096638;28;20359;-70
2021/06/11 03:20:45;;;;;;;3.25;3.05;;;;;;;;;;5096532;28;20028;-69
2021/06/11 03:23:15;;;;;;;3.10;2.90;;;;;;;;;;5096380;28;20016;-70
2021/06/11 03:25:40;;;;;;;;;;;;;;;;;;5095292;28;20032;-70
2021/06/11 03:28:12;;;;;;;2.85;2.65;;;;;;;;;;5095273;28;19910;-70
2021/06/11 03:30:38;;;;;;;2.90;2.65;;;;;;;;;;5096304;28;20036;-70
2021/06/11 03:33:07;;;;;;;3.33;3.03;;;;;;;;;;5095971;28;20089;-69
2021/06/11 03:35:36;;;;;;;3.20;3.00;;;;;;;;;;5096155;28;20485;-69
2021/06/11 03:38:02;;;;;;;3.60;3.03;;;;;;;;;;5096114;28;20040;-70
2021/06/11 03:40:30;;;;;;;3.35;3.08;;;;;;;;;;5095748;28;20032;-70
2021/06/11 03:42:56;;;;;;;3.92;3.33;;;;;;;;;;5095663;28;20008;-70
2021/06/11 03:45:22;;;;;;;3.45;2.88;;;;;;;;;;5094669;28;20032;-69
2021/06/11 03:47:49;;;;;;;4.60;3.03;;;;;;;;;;5094664;28;20031;-70
2021/06/11 03:50:19;;;;;;;3.47;2.92;;;;;;;;;;5095650;28;20028;-70
2021/06/11 03:52:46;;;;;;;3.08;2.75;;;;;;;;;;5094415;28;20055;-68
2021/06/11 03:55:21;;;;;;;4.03;3.40;;;;;;;;;;5094605;28;20020;-69
2021/06/11 03:57:48;;;;;;;3.45;3.25;;;;;;;;;;5094422;28;20024;-68
2021/06/11 04:00:14;;;;;;;3.45;3.15;;;;;;;;;;5095320;28;20059;-69
2021/06/11 04:02:40;;;;;;;4.15;3.33;;;;;;;;;;5094391;28;20457;-69
2021/06/11 04:05:05;;;;;;;5.20;3.50;;;;;;;;;;5095923;28;20013;-69
2021/06/11 04:07:36;;;;;;;4.30;3.20;;;;;;;;;;5095408;28;20371;-69
2021/06/11 04:10:06;;;;;;;3.60;3.30;;;;;;;;;;5095519;28;20043;-69
2021/06/11 04:12:40;;;;;;;7.50;3.40;;;;;;;;;;5095350;28;20441;-69
2021/06/11 04:15:07;;;;;;;4.95;4.13;;;;;;;;;;5094293;28;20055;-69
2021/06/11 04:17:35;;;;;;;4.30;3.90;;;;;;;;;;5095160;28;20359;-69
2021/06/11 04:20:01;;;;;;;5.10;3.95;;;;;;;;;;5094407;28;20354;-69
2021/06/11 04:22:30;;;;;;;5.68;4.45;;;;;;;;;;5094877;28;20013;-69
2021/06/11 04:24:57;;;;;;;7.47;4.47;;;;;;;;;;5093848;28;20081;-69
2021/06/11 04:27:23;;;;;;;9.05;5.05;;;;;;;;;;5094190;28;20016;-71
2021/06/11 04:29:49;;;;;;;5.13;4.53;;;;;;;;;;5094986;28;20034;-70
2021/06/11 04:32:18;;;;;;;8.30;4.65;;;;;;;;;;5094727;28;20107;-70
2021/06/11 04:34:46;;;;;;;5.30;4.72;;;;;;;;;;5094401;28;20099;-70
2021/06/11 04:37:17;;;;;;;7.28;4.93;;;;;;;;;;5093878;28;20032;-71
2021/06/11 04:39:44;;;;;;;8.38;5.15;;;;;;;;;;5091646;28;20124;-70
2021/06/11 04:42:09;;;;;;;6.05;4.57;;;;;;;;;;5094660;28;20509;-70
2021/06/11 04:44:35;;;;;;;8.85;4.97;;;;;;;;;;5093329;28;20051;-70
2021/06/11 04:47:01;;;;;;;6.50;4.80;;;;;;;;;;5094796;28;20070;-70
2021/06/11 04:49:27;;;;;;;5.20;4.70;;;;;;;;;;5094674;28;20103;-70
2021/06/11 04:51:52;;;;;;;5.50;5.00;;;;;;;;;;5092589;28;20566;-70
2021/06/11 04:54:18;;;;;;;7.30;4.80;;;;;;;;;;5094342;28;20032;-70
2021/06/11 04:56:43;;;;;;;6.32;4.90;;;;;;;;;;5094326;28;20048;-71
2021/06/11 04:59:09;;;;;;;5.78;4.97;;;;;;;;;;5094269;28;20026;-71
2021/06/11 05:01:34;;;;;;;5.38;4.43;;;;;;;;;;5094344;28;20020;-71
2021/06/11 05:04:00;;;;;;;9.95;4.80;;;;;;;;;;5094446;28;20032;-74
2021/06/11 05:06:26;;;;;;;9.65;4.85;;;;;;;;;;5094368;28;20028;-74
2021/06/11 05:08:51;;;;;;;7.13;4.75;;;;;;;;;;5094156;28;20114;-74
2021/06/11 05:11:17;;;;;;;5.82;4.72;;;;;;;;;;5094192;28;20149;-74
2021/06/11 05:13:42;;;;;;;7.18;4.55;;;;;;;;;;5094419;28;20509;-74
2021/06/11 05:16:08;;;;;;;7.38;4.93;;;;;;;;;;5094300;28;20020;-73
2021/06/11 05:18:34;;;;;;;6.80;4.60;;;;;;;;;;5094423;28;20104;-73
2021/06/11 05:21:00;;;;;;;7.70;4.65;;;;;;;;;;5092757;28;20018;-71
2021/06/11 05:23:26;;;;;;;10.70;5.20;;;;;;;;;;5093955;28;20053;-68
2021/06/11 05:25:52;;;;;;;7.07;4.70;;;;;;;;;;5092616;28;20493;-68
2021/06/11 05:28:19;;;;;;;7.47;4.72;;;;;;;;;;5094260;28;20028;-68
2021/06/11 05:30:44;;;;;;;4.97;4.35;;;;;;;;;;5093046;28;20106;-68
2021/06/11 05:33:09;;;;;;;5.85;4.03;;;;;;;;;;5093409;28;20116;-68
2021/06/11 05:35:35;;;;;;;6.47;4.93;;;;;;;;;;5093540;28;20039;-68
2021/06/11 05:38:04;;;;;;;6.97;4.78;;;;;;;;;;5093578;28;20064;-68
2021/06/11 05:40:31;;;;;;;5.25;4.20;;;;;;;;;;5093792;28;20032;-68
2021/06/11 05:42:57;;;;;;;8.82;4.50;;;;;;;;;;5093879;28;20054;-69
2021/06/11 05:45:22;;;;;;;5.28;4.07;;;;;;;;;;5093888;28;20052;-68
2021/06/11 05:47:48;;;;;;;5.82;4.32;;;;;;;;;;5094193;28;20527;-69
2021/06/11 05:50:13;;;;;;;7.75;4.13;;;;;;;;;;5093099;28;20047;-69
2021/06/11 05:52:39;;;;;;;9.38;4.35;;;;;;;;;;5093506;28;20024;-69
2021/06/11 05:55:05;;;;;;;5.32;4.13;;;;;;;;;;5093418;28;20032;-69
2021/06/11 05:57:30;;;;;;;6.90;4.60;;;;;;;;;;5092315;28;20051;-69
2021/06/11 05:59:57;;;;;;;4.47;4.07;;;;;;;;;;5092435;28;20068;-69
2021/06/11 06:02:22;;;;;;;7.70;4.38;;;;;;;;;;5092099;28;20023;-69
2021/06/11 06:04:49;;;;;;;4.60;4.22;;;;;;;;;;5093308;28;20028;-69
2021/06/11 06:07:15;;;;;;;3.97;3.63;;;;;;;;;;5093523;28;20051;-69
2021/06/11 06:09:41;;;;;;;4.43;3.63;;;;;;;;;;5092251;28;20116;-68
2021/06/11 06:12:06;;;;;;;5.10;3.97;;;;;;;;;;5092474;28;20031;-69
2021/06/11 06:14:33;;;;;;;4.47;4.10;;;;;;;;;;5093253;28;20440;-69
2021/06/11 06:16:58;;;;;;;4.60;4.07;;;;;;;;;;5093559;28;20020;-69
2021/06/11 06:19:24;;;;;;;3.83;3.53;;;;;;;;;;5093478;28;20016;-68
2021/06/11 06:21:49;;;;;;;4.18;3.78;;;;;;;;;;5093121;28;20017;-69
2021/06/11 06:24:16;;;;;;;4.15;3.75;;;;;;;;;;5093396;28;20020;-69
2021/06/11 06:26:41;;;;;;;5.85;3.92;;;;;;;;;;5093410;28;20020;-69
2021/06/11 06:29:07;;;;;;;4.35;3.95;;;;;;;;;;5093309;28;20107;-69
2021/06/11 06:31:32;;;;;;;4.68;3.97;;;;;;;;;;5093311;28;20034;-69
2021/06/11 06:33:58;;;;;;;4.50;4.10;;;;;;;;;;5093194;28;20032;-69
2021/06/11 06:36:24;;;;;;;4.15;3.13;;;;;;;;;;5092921;28;20020;-69
2021/06/11 06:38:51;;;;;;;4.05;3.75;;;;;;;;;;5093218;28;20123;-69
2021/06/11 06:41:17;;;;;;;3.03;2.83;;;;;;;;;;5093320;28;20055;-69
2021/06/11 06:43:43;;;;;;;3.90;3.60;;;;;;;;;;5092959;28;20448;-69
2021/06/11 06:46:10;;;;;;;3.92;3.63;;;;;;;;;;5095550;28;20069;-69
2021/06/11 06:48:36;;;;;;;3.72;3.35;;;;;;;;;;5096777;28;20036;-69
2021/06/11 06:51:02;;;;;;;3.58;3.38;;;;;;;;;;5096830;28;20810;-69
2021/06/11 06:53:28;;;;;;;3.72;3.42;;;;;;;;;;5096972;28;20020;-69
2021/06/11 06:59:28;;;;;;;3.97;3.78;;;;;;;;;;5097284;28;20483;-69
2021/06/11 07:05:30;;;;;;;3.45;3.22;;;;;;;;;;5096904;28;20034;-69
2021/06/11 07:11:32;;;;;;;3.17;2.92;;;;;;;;;;5097109;28;20112;-69
2021/06/11 07:17:32;;;;;;;3.78;3.15;;;;;;;;;;5096709;28;20611;-68
2021/06/11 07:23:35;;;;;;;3.25;3.10;;;;;;;;;;5096876;28;20035;-69
2021/06/11 07:29:42;;;;;;;2.95;2.75;;;;;;;;;;5096725;28;20072;-69
2021/06/11 07:35:43;;;;;;;3.22;3.03;;;;;;;;;;5096292;28;20501;-69
2021/06/11 07:38:08;;;;;;;3.30;3.10;;;;;;;;;;5089216;28;20040;-69
2021/06/11 07:40:34;;;;;;;3.13;2.92;;;;;;;;;;5095662;28;20043;-69
2021/06/11 07:43:01;;;;;;;2.95;2.75;;;;;;;;;;5096639;28;20019;-69
2021/06/11 07:45:26;;;;;;;3.15;2.35;;;;;;;;;;5095840;28;20020;-69
2021/06/11 07:47:52;;;;;;;2.53;2.42;;;;;;;;;;5095811;28;20465;-69
2021/06/11 07:50:17;;;;;;;2.95;2.78;;;;;;;;;;5095621;28;20032;-69
2021/06/11 07:52:43;;;;;;;3.05;2.85;;;;;;;;;;5095675;28;20020;-69
2021/06/11 07:55:08;;;;;;;3.22;3.08;;;;;;;;;;5095727;28;20020;-69
2021/06/11 07:57:34;;;;;;;3.30;3.10;;;;;;;;;;5093136;28;20040;-69
2021/06/11 08:00:01;;;;;;;2.63;2.50;;;;;;;;;;5095601;28;20032;-69
2021/06/11 08:02:26;;;;;;;2.58;2.38;;;;;;;;;;5095643;28;20026;-69
2021/06/11 08:04:52;;;;;;;2.85;2.65;;;;;;;;;;5095942;28;20020;-69
2021/06/11 08:07:17;;;;;;;2.53;2.33;;;;;;;;;;5095373;28;20016;-69
2021/06/11 08:09:43;;;;;;;2.30;2.20;;;;;;;;;;5095605;28;20085;-69
2021/06/11 08:12:09;;;;;;;1.83;1.70;;;;;;;;;;5095581;28;20023;-69
2021/06/11 08:14:35;;;;;;;2.28;1.80;;;;;;;;;;5095367;28;20111;-69
2021/06/11 08:17:03;;;;;;;1.85;1.75;;;;;;;;;;5095410;28;20095;-69
2021/06/11 08:19:29;;;;;;;2.30;2.05;;;;;;;;;;5095347;28;20051;-69
2021/06/11 08:21:55;;;;;;;2.00;1.90;;;;;;;;;;5095545;28;20026;-69
2021/06/11 08:24:20;;;;;;;2.47;1.67;;;;;;;;;;5095309;28;20024;-69
2021/06/11 08:26:46;;;;;;;1.77;1.67;;;;;;;;;;5095259;28;20107;-69
2021/06/11 08:29:11;;;;;;;2.00;1.83;;;;;;;;;;5095139;28;20035;-69
2021/06/11 08:31:37;;;;;;;5.05;2.28;;;;;;;;;;5095160;28;20020;-69
2021/06/11 08:34:02;;;;;;;1.95;1.85;;;;;;;;;;5094503;28;20032;-69
2021/06/11 08:36:28;;;;;;;2.13;1.30;;;;;;;;;;5094729;28;20064;-69
2021/06/11 08:38:55;;;;;;;1.60;1.50;;;;;;;;;;5094735;28;20113;-69
2021/06/11 08:41:21;;;;;;;1.60;1.40;;;;;;;;;;5094567;28;20036;-69
2021/06/11 08:43:47;;;;;;;1.55;1.45;;;;;;;;;;5094617;28;20429;-69
2021/06/11 08:46:13;;;;;;;1.65;1.55;;;;;;;;;;5094598;28;20027;-69
2021/06/11 08:48:40;;;;;;;1.73;1.63;;;;;;;;;;5094766;28;20028;-69
2021/06/11 08:51:08;;;;;;;2.03;1.92;;;;;;;;;;5094529;28;20020;-69
2021/06/11 08:53:34;;;;;;;1.98;1.70;;;;;;;;;;5076581;28;20042;-69
2021/06/11 08:55:59;;;;;;;1.80;1.70;;;;;;;;;;5093551;28;20024;-69
2021/06/11 08:58:25;;;;;;;1.95;1.85;;;;;;;;;;5094466;28;20028;-69
2021/06/11 09:00:50;;;;;;;1.98;1.88;;;;;;;;;;5094545;28;20024;-67
2021/06/11 09:03:25;;;;;;;2.10;1.92;;;;;;;;;;5094538;28;20027;-69
2021/06/11 09:05:54;;;;;;;1.95;1.85;;;;;;;;;;5094817;28;20024;-69
2021/06/11 09:08:21;;;;;;;2.08;1.90;;;;;;;;;;5093215;28;20031;-69
2021/06/11 09:10:49;;;;;;;1.90;1.80;;;;;;;;;;5094530;28;20366;-69
2021/06/11 09:13:24;;;;;;;2.30;1.77;;;;;;;;;;5094035;28;20462;-69
2021/06/11 09:15:49;;;;;;;2.38;2.08;;;;;;;;;;5094015;28;20035;-69
2021/06/11 09:18:23;;;;;;;1.98;1.83;;;;;;;;;;5093988;28;20020;-69
2021/06/11 09:20:49;;;;;;;1.65;1.38;;;;;;;;;;5092726;28;20020;-69
2021/06/11 09:23:16;;;;;;;1.70;1.60;;;;;;;;;;5094250;28;20020;-69
2021/06/11 09:25:45;;;;;;;1.80;1.70;;;;;;;;;;5092852;28;20032;-69
2021/06/11 09:28:15;;;;;;;2.38;1.70;;;;;;;;;;5094667;28;20020;-69
2021/06/11 09:30:41;;;;;;;1.77;1.67;;;;;;;;;;5094082;28;20047;-69
2021/06/11 09:33:15;;;;;;;1.80;1.70;;;;;;;;;;5093858;28;20047;-69
2021/06/11 09:35:59;;;;;;;2.08;1.98;;;;;;;;;;5059854;28;20087;-69
2021/06/11 09:38:26;;;;;;;1.73;1.63;;;;;;;;;;5093657;28;20036;-69
2021/06/11 09:40:59;;;;;;;1.33;1.25;;;;;;;;;;5092428;28;20647;-69
2021/06/11 09:43:26;;;;;;;1.52;1.35;;;;;;;;;;5088679;28;20025;-69
2021/06/11 09:46:13;;;;;;;1.42;1.33;;;;;;;;;;5072947;28;20033;-69
2021/06/11 09:48:41;;;;;;;1.67;1.58;;;;;;;;;;5073396;28;20028;-69
2021/06/11 09:51:13;;;;;;;1.55;1.45;;;;;;;;;;5072051;28;20029;-69
2021/06/11 09:53:39;;;;;;;1.90;1.80;;;;;;;;;;5072405;28;20386;-69
2021/06/11 09:56:04;;;;;;;2.10;1.73;;;;;;;;;;5073484;28;20112;-69
2021/06/11 09:58:33;;;;;;;3.33;1.60;;;;;;;;;;5073460;28;20048;-69
2021/06/11 10:01:00;;;;;;;1.77;1.58;;;;;;;;;;5073467;28;20041;-69
2021/06/11 10:03:30;;;;;;;2.17;2.08;;;;;;;;;;5073723;28;20025;-69
2021/06/11 10:05:58;;;;;;;2.25;2.05;;;;;;;;;;5073938;28;20505;-69
2021/06/11 10:08:24;;;;;;;1.90;1.77;;;;;;;;;;5073148;28;20047;-69
2021/06/11 10:10:50;;;;;;;1.85;1.75;;;;;;;;;;5071775;28;20386;-69
2021/06/11 10:13:17;;;;;;;2.00;1.90;;;;;;;;;;5073787;28;20023;-69
2021/06/11 10:15:43;;;;;;;2.08;1.88;;;;;;;;;;5072582;28;20436;-66
2021/06/11 10:18:10;;;;;;;3.03;2.05;;;;;;;;;;5071709;28;20025;-66
2021/06/11 10:20:35;;;;;;;1.83;1.73;;;;;;;;;;5075257;28;20455;-65
2021/06/11 10:23:01;;;;;;;2.30;1.60;;;;;;;;;;5075550;28;20033;-66
2021/06/11 10:25:27;;;;;;;2.15;1.58;;;;;;;;;;5077095;28;20029;-66
2021/06/11 10:27:53;;;;;;;2.05;1.83;;;;;;;;;;5076898;28;20488;-66
2021/06/11 10:30:19;;;;;;;1.70;1.60;;;;;;;;;;5075848;28;20071;-66
2021/06/11 10:32:48;;;;;;;1.92;1.83;;;;;;;;;;5075659;28;20052;-66
2021/06/11 10:35:34;;;;;;;1.92;1.83;;;;;;;;;;5076796;28;20177;-66
2021/06/11 10:37:59;;;;;;;2.20;2.10;;;;;;;;;;5076682;28;20123;-66
2021/06/11 10:40:38;;;;;;;2.92;2.72;;;;;;;;;;5076904;28;20120;-66
2021/06/11 10:43:21;;;;;;;3.22;3.03;;;;;;;;;;5077104;28;20370;-66
2021/06/11 10:45:47;;;;;;;2.70;2.47;;;;;;;;;;5076604;28;20032;-66
2021/06/11 10:48:12;;;;;;;3.08;2.50;;;;;;;;;;5076453;28;20081;-66
2021/06/11 10:50:38;;;;;;;3.88;3.55;;;;;;;;;;5075158;28;20479;-66
2021/06/11 10:53:09;;;;;;;3.60;2.40;;;;;;;;;;5076501;28;20025;-66
2021/06/11 10:55:34;;;;;;;;;;;;;;;;;;5077054;28;20466;-66
2021/06/11 10:58:00;;;;;;;2.30;2.10;;;;;;;;;;5076526;28;19911;-65
2021/06/11 11:00:38;;;;;;;1.58;1.48;;;;;;;;;;5076716;28;20017;-65
2021/06/11 11:03:05;;;;;;;2.15;1.33;;;;;;;;;;5076567;28;20024;-69
2021/06/11 11:05:37;;;;;;;1.50;1.33;;;;;;;;;;5076432;28;20082;-69
2021/06/11 11:08:05;;;;;;;5.00;1.30;;;;;;;;;;5076546;28;20029;-69
2021/06/11 11:10:47;;;;;;;2.47;1.20;;;;;;;;;;5074832;28;20062;-69
2021/06/11 11:13:13;;;;;;;3.65;1.30;;;;;;;;;;5075994;28;20056;-69
2021/06/11 11:15:42;;;;;;;1.35;1.25;;;;;;;;;;5074977;28;20382;-69
2021/06/11 11:18:10;;;;;;;1.70;1.60;;;;;;;;;;5076210;28;20028;-62
2021/06/11 11:20:36;;;;;;;1.50;1.45;;;;;;;;;;5076042;28;20020;-65
2021/06/11 11:23:04;;;;;;;1.40;1.30;;;;;;;;;;5075973;28;20527;-63
2021/06/11 11:25:32;;;;;;;3.33;1.50;;;;;;;;;;5076129;28;20030;-64
2021/06/11 11:27:59;;;;;;;1.85;1.75;;;;;;;;;;5091736;28;20036;-61
2021/06/11 11:30:26;;;;;;;1.40;1.30;;;;;;;;;;5075909;28;20390;-66
2021/06/11 11:32:52;;;;;;;6.72;6.13;;;;;;;;;;5074974;28;20028;-67
2021/06/11 11:35:19;;;;;;;12.80;10.45;;;;;;;;;;5075554;28;20055;-69
2021/06/11 11:37:45;;;;;;;4.90;4.50;;;;;;;;;;5075478;28;20379;-71
2021/06/11 11:40:11;;;;;;;4.57;4.18;;;;;;;;;;5075844;28;20020;-71
2021/06/11 11:42:36;;;;;;;2.80;2.60;;;;;;;;;;5075520;28;20138;-71
2021/06/11 11:45:03;;;;;;;1.90;1.80;;;;;;;;;;5075393;28;20024;-71
2021/06/11 11:47:28;;;;;;;5.88;5.28;;;;;;;;;;5075452;28;20025;-71
2021/06/11 11:49:54;;;;;;;3.65;3.25;;;;;;;;;;5090961;28;20032;-71
2021/06/11 11:52:19;;;;;;;3.95;2.20;;;;;;;;;;5075239;28;20536;-74
2021/06/11 11:54:45;;;;;;;5.10;3.70;;;;;;;;;;5075295;28;20031;-74
2021/06/11 11:57:10;;;;;;;2.80;2.60;;;;;;;;;;5075279;28;20036;-73
2021/06/11 11:59:36;;;;;;;3.97;3.08;;;;;;;;;;5075441;28;20527;-74
2021/06/11 12:02:01;;;;;;;3.30;3.10;;;;;;;;;;5075356;28;20008;-74
2021/06/11 12:04:28;;;;;;;4.15;3.85;;;;;;;;;;5075159;28;20032;-74
2021/06/11 12:06:53;;;;;;;2.63;2.42;;;;;;;;;;5091068;28;20451;-73
2021/06/11 12:09:19;;;;;;;7.18;5.95;;;;;;;;;;5075694;28;20078;-74
2021/06/11 12:11:45;;;;;;;3.78;3.47;;;;;;;;;;5075031;28;20016;-74
2021/06/11 12:14:12;;;;;;;3.38;2.97;;;;;;;;;;5074805;28;20398;-73
2021/06/11 12:16:38;;;;;;;2.20;2.10;;;;;;;;;;5074083;28;20032;-71
2021/06/11 12:19:04;;;;;;;5.53;4.40;;;;;;;;;;5075102;28;20021;-71
2021/06/11 12:21:29;;;;;;;3.00;2.80;;;;;;;;;;5075152;28;20021;-71
2021/06/11 12:23:55;;;;;;;5.22;4.75;;;;;;;;;;5075074;28;20029;-70
2021/06/11 12:26:20;;;;;;;3.30;3.10;;;;;;;;;;5090814;28;20021;-70
2021/06/11 12:28:46;;;;;;;6.57;5.90;;;;;;;;;;5074851;28;20078;-70
2021/06/11 12:31:11;;;;;;;3.55;3.33;;;;;;;;;;5074877;28;20081;-70
2021/06/11 12:33:37;;;;;;;2.53;2.38;;;;;;;;;;5074829;28;20060;-70
2021/06/11 12:36:03;;;;;;;2.47;2.30;;;;;;;;;;5074647;28;20067;-70
2021/06/11 12:38:29;;;;;;;6.90;3.45;;;;;;;;;;5089824;28;20044;-70
2021/06/11 12:40:56;;;;;;;2.58;2.47;;;;;;;;;;5074431;28;20028;-70
2021/06/11 12:44:14;;;;;;;2.78;2.58;;;;;;;;;;5072965;28;20025;-70
2021/06/11 12:46:08;;;;;;;2.90;2.70;;;;;;;;;;5074528;28;20028;-70
2021/06/11 12:48:34;;;;;;;2.33;2.22;;;;;;;;;;5072977;28;20370;-70
2021/06/11 12:50:59;;;;;;;2.20;2.10;;;;;;;;;;5072984;28;20037;-71
2021/06/11 12:53:25;;;;;;;2.92;2.72;;;;;;;;;;5074513;28;20107;-71
2021/06/11 12:55:50;;;;;;;2.33;2.22;;;;;;;;;;5074387;28;20067;-70
2021/06/11 12:58:16;;;;;;;2.40;2.30;;;;;;;;;;5078195;28;20008;-70
2021/06/11 13:00:41;;;;;;;2.10;2.00;;;;;;;;;;5092484;28;20032;-71
2021/06/11 13:03:07;;;;;;;2.15;2.05;;;;;;;;;;5094365;28;20024;-70
2021/06/11 13:05:32;;;;;;;2.40;2.30;;;;;;;;;;5094354;28;20043;-70
2021/06/11 13:07:57;;;;;;;2.45;2.33;;;;;;;;;;5094511;28;20023;-70
2021/06/11 13:10:23;;;;;;;2.60;2.40;;;;;;;;;;5092991;28;20028;-70
2021/06/11 13:12:48;;;;;;;2.25;2.15;;;;;;;;;;5092909;28;20455;-70
2021/06/11 13:15:14;;;;;;;2.20;2.10;;;;;;;;;;5092791;28;20167;-71
2021/06/11 13:17:39;;;;;;;2.63;2.33;;;;;;;;;;5093952;28;20462;-71
2021/06/11 13:20:06;;;;;;;2.75;2.55;;;;;;;;;;5093998;28;20020;-71
2021/06/11 13:22:31;;;;;;;2.60;2.40;;;;;;;;;;5094542;28;20015;-70
2021/06/11 13:24:57;;;;;;;2.30;2.20;;;;;;;;;;5094001;28;20115;-69
2021/06/11 13:27:22;;;;;;;2.20;2.00;;;;;;;;;;5093962;28;20024;-70
2021/06/11 13:29:48;;;;;;;2.50;2.33;;;;;;;;;;5094304;28;20542;-70
2021/06/11 13:32:14;;;;;;;2.30;2.20;;;;;;;;;;5093211;28;20076;-70
2021/06/11 13:34:40;;;;;;;1.90;1.80;;;;;;;;;;5092785;28;20041;-69
2021/06/11 13:37:06;;;;;;;2.08;1.98;;;;;;;;;;5075780;28;20020;-66
2021/06/11 13:39:32;;;;;;;2.30;2.20;;;;;;;;;;5093857;28;20118;-68
2021/06/11 13:41:57;;;;;;;2.17;1.90;;;;;;;;;;5093928;28;20451;-69
2021/06/11 13:44:23;;;;;;;2.28;2.10;;;;;;;;;;5093437;28;20020;-68
2021/06/11 13:46:48;;;;;;;4.10;2.17;;;;;;;;;;5092828;28;20526;-68
2021/06/11 13:49:14;;;;;;;1.88;1.77;;;;;;;;;;5093101;28;20110;-69
2021/06/11 13:51:40;;;;;;;2.25;2.05;;;;;;;;;;5093294;28;20039;-68
2021/06/11 13:54:05;;;;;;;1.98;1.88;;;;;;;;;;5093081;28;20032;-68
2021/06/11 14:00:10;;;;;;;2.10;2.00;;;;;;;;;;5094104;28;20023;-68
2021/06/11 14:06:12;;;;;;;2.05;1.95;;;;;;;;;;5094039;28;20102;-68
2021/06/11 14:12:14;;;;;;;2.67;2.47;;;;;;;;;;5093981;28;20055;-68
2021/06/11 14:18:16;;;;;;;2.58;2.38;;;;;;;;;;5093915;28;20108;-68
2021/06/11 14:24:17;;;;;;;2.30;2.10;;;;;;;;;;5093633;28;20023;-69
2021/06/11 14:30:18;;;;;;;2.40;2.22;;;;;;;;;;5093824;28;20496;-68
2021/06/11 14:36:19;;;;;;;1.75;1.65;;;;;;;;;;5093585;28;20493;-68
2021/06/11 14:42:22;;;;;;;2.67;2.00;;;;;;;;;;5092574;28;20581;-68
2021/06/11 14:44:47;;;;;;;2.03;1.92;;;;;;;;;;5093070;28;20031;-68
2021/06/11 14:47:13;;;;;;;2.85;2.03;;;;;;;;;;5092072;28;20012;-68
2021/06/11 14:49:38;;;;;;;1.90;1.80;;;;;;;;;;5093080;28;20111;-68
2021/06/11 14:52:05;;;;;;;2.20;2.03;;;;;;;;;;5093026;28;20066;-68
2021/06/11 14:54:36;;;;;;;2.28;2.08;;;;;;;;;;5091618;28;20020;-68
2021/06/11 14:57:02;;;;;;;2.28;2.17;;;;;;;;;;5091885;28;20451;-68
2021/06/11 14:59:28;;;;;;;3.25;3.00;;;;;;;;;;5093273;28;20008;-68
2021/06/11 15:01:53;;;;;;;4.35;2.72;;;;;;;;;;5093081;28;20039;-68
2021/06/11 15:04:19;;;;;;;3.65;2.95;;;;;;;;;;5091668;28;20012;-68
2021/06/11 15:06:45;;;;;;;4.75;3.50;;;;;;;;;;5095304;28;20111;-68
2021/06/11 15:09:13;;;;;;;5.13;3.17;;;;;;;;;;5096688;28;20104;-68
2021/06/11 15:11:39;;;;;;;5.20;3.08;;;;;;;;;;5096547;28;20035;-68
2021/06/11 15:14:04;;;;;;;5.50;3.58;;;;;;;;;;5096492;28;20016;-68
2021/06/11 15:16:30;;;;;;;3.35;3.05;;;;;;;;;;5096576;28;20036;-68
2021/06/11 15:18:55;;;;;;;4.10;3.50;;;;;;;;;;5096129;28;20024;-68
2021/06/11 15:21:21;;;;;;;3.83;3.08;;;;;;;;;;5095021;28;20008;-68
2021/06/11 15:23:46;;;;;;;3.60;3.10;;;;;;;;;;5096264;28;20382;-68
2021/06/11 15:26:12;;;;;;;3.92;3.58;;;;;;;;;;5094974;28;20043;-68
2021/06/11 15:28:38;;;;;;;5.15;3.58;;;;;;;;;;5096457;28;20026;-68
2021/06/11 15:31:03;;;;;;;4.57;4.15;;;;;;;;;;5096138;28;20028;-68
2021/06/11 15:33:29;;;;;;;5.10;4.00;;;;;;;;;;5096223;28;20028;-68
2021/06/11 15:35:54;;;;;;;5.40;4.68;;;;;;;;;;5096034;28;20039;-68